createdAt,value
2018-05-02T00:01:15.958Z,8.60
2018-05-02T00:02:15.497Z,9.80
2018-05-02T00:04:10.875Z,11.90
2018-05-02T00:05:09.356Z,8.40
2018-05-02T00:07:02.775Z,10.30
2018-05-02T00:08:02.640Z,9.20
2018-05-02T00:09:56.108Z,10.30
2018-05-02T00:10:57.023Z,9.60
2018-05-02T00:12:50.359Z,7.50
2018-05-02T00:13:49.479Z,8.70
2018-05-02T00:15:42.860Z,9.00
2018-05-02T00:16:42.364Z,9.10
2018-05-02T00:18:36.398Z,10.50
2018-05-02T00:19:35.708Z,11.30
2018-05-02T00:21:29.530Z,8.10
2018-05-02T00:22:30.040Z,11.80
2018-05-02T00:24:22.898Z,9.40
2018-05-02T00:25:22.408Z,13.50
2018-05-02T00:27:16.266Z,10.20
2018-05-02T00:28:15.874Z,9.80
2018-05-02T00:30:11.252Z,12.00
2018-05-02T00:31:09.810Z,9.70
2018-05-02T00:33:05.119Z,9.80
2018-05-02T00:34:04.898Z,10.20
2018-05-02T00:35:56.896Z,10.80
2018-05-02T00:36:56.571Z,14.50
2018-05-02T00:38:51.294Z,10.10
2018-05-02T00:39:51.191Z,8.90
2018-05-02T00:41:44.776Z,9.20
2018-05-02T00:42:43.760Z,11.00
2018-05-02T00:44:37.545Z,8.90
2018-05-02T00:45:37.183Z,7.50
2018-05-02T00:47:31.464Z,9.20
2018-05-02T00:48:30.405Z,8.90
2018-05-02T00:50:25.455Z,8.90
2018-05-02T00:51:23.718Z,9.10
2018-05-02T00:53:17.526Z,12.70
2018-05-02T00:54:17.786Z,10.10
2018-05-02T00:56:10.585Z,9.20
2018-05-02T00:57:10.436Z,9.90
2018-05-02T00:59:04.798Z,12.50
2018-05-02T01:00:04.549Z,9.30
2018-05-02T01:01:57.226Z,10.40
2018-05-02T01:02:59.727Z,7.90
2018-05-02T01:04:50.876Z,7.90
2018-05-02T01:05:51.058Z,10.00
2018-05-02T01:07:44.276Z,8.60
2018-05-02T01:08:43.839Z,10.40
2018-05-02T01:10:39.187Z,11.40
2018-05-02T01:11:37.777Z,10.10
2018-05-02T01:13:31.517Z,9.10
2018-05-02T01:14:31.458Z,8.20
2018-05-02T01:16:24.899Z,7.90
2018-05-02T01:17:24.507Z,9.20
2018-05-02T01:19:17.864Z,9.60
2018-05-02T01:20:17.816Z,10.40
2018-05-02T01:22:11.608Z,9.40
2018-05-02T01:23:11.154Z,8.70
2018-05-02T01:25:04.927Z,12.40
2018-05-02T01:26:04.550Z,10.90
2018-05-02T01:27:58.085Z,9.20
2018-05-02T01:28:57.912Z,12.30
2018-05-02T01:30:52.816Z,9.60
2018-05-02T01:31:51.256Z,9.80
2018-05-02T01:33:45.201Z,10.60
2018-05-02T01:34:44.593Z,11.00
2018-05-02T01:36:38.917Z,12.20
2018-05-02T01:37:37.968Z,8.90
2018-05-02T01:39:31.754Z,10.30
2018-05-02T01:40:31.742Z,11.20
2018-05-02T01:42:25.098Z,12.00
2018-05-02T01:43:25.027Z,8.90
2018-05-02T01:45:18.907Z,10.50
2018-05-02T01:46:18.056Z,8.60
2018-05-02T01:48:11.848Z,9.90
2018-05-02T01:49:12.045Z,12.40
2018-05-02T01:51:05.193Z,12.70
2018-05-02T01:52:04.939Z,8.80
2018-05-02T01:53:58.602Z,11.00
2018-05-02T01:54:59.043Z,8.80
2018-05-02T01:56:51.795Z,9.00
2018-05-02T01:57:51.395Z,10.90
2018-05-02T01:59:45.367Z,11.90
2018-05-02T02:00:44.778Z,9.50
2018-05-02T02:02:40.032Z,10.80
2018-05-02T02:03:38.141Z,10.50
2018-05-02T02:05:31.905Z,10.40
2018-05-02T02:06:31.825Z,8.60
2018-05-02T02:08:25.406Z,8.40
2018-05-02T02:09:24.845Z,8.70
2018-05-02T02:11:18.672Z,11.90
2018-05-02T02:12:18.226Z,10.20
2018-05-02T02:14:12.012Z,10.40
2018-05-02T02:15:11.540Z,10.30
2018-05-02T02:17:05.402Z,27.90
2018-05-02T02:18:05.073Z,42.70
2018-05-02T02:19:59.281Z,58.80
2018-05-02T02:20:58.859Z,61.70
2018-05-02T02:22:52.670Z,30.40
